sensor_id;sensor_type;location;lat;lon;timestamp;P1;durP1;ratioP1;P2;durP2;ratioP2
62572;SDS011;48626;51.678;5.806;2024-03-23T00:51:15;7.32;;;2.75;;
62572;SDS011;48626;51.678;5.806;2024-03-23T00:56:08;11.65;;;3.35;;
62572;SDS011;48626;51.678;5.806;2024-03-23T00:58:33;16.60;;;3.53;;
62572;SDS011;48626;51.678;5.806;2024-03-23T01:01:00;9.88;;;3.38;;
62572;SDS011;48626;51.678;5.806;2024-03-23T01:03:25;6.22;;;2.95;;
62572;SDS011;48626;51.678;5.806;2024-03-23T01:05:51;15.77;;;3.38;;
62572;SDS011;48626;51.678;5.806;2024-03-23T01:08:18;10.35;;;4.10;;
62572;SDS011;48626;51.678;5.806;2024-03-23T01:10:53;9.38;;;3.35;;
62572;SDS011;48626;51.678;5.806;2024-03-23T01:13:19;9.73;;;3.08;;
62572;SDS011;48626;51.678;5.806;2024-03-23T01:15:50;9.93;;;3.33;;
62572;SDS011;48626;51.678;5.806;2024-03-23T01:18:17;16.67;;;3.15;;
62572;SDS011;48626;51.678;5.806;2024-03-23T01:20:43;18.90;;;3.88;;
62572;SDS011;48626;51.678;5.806;2024-03-23T01:23:09;13.55;;;3.60;;
62572;SDS011;48626;51.678;5.806;2024-03-23T01:25:35;7.57;;;3.45;;
62572;SDS011;48626;51.678;5.806;2024-03-23T01:28:00;11.75;;;3.75;;
62572;SDS011;48626;51.678;5.806;2024-03-23T01:30:26;11.13;;;3.58;;
62572;SDS011;48626;51.678;5.806;2024-03-23T01:32:52;13.70;;;3.47;;
62572;SDS011;48626;51.678;5.806;2024-03-23T01:35:17;13.82;;;4.35;;
62572;SDS011;48626;51.678;5.806;2024-03-23T01:37:43;11.93;;;4.35;;
62572;SDS011;48626;51.678;5.806;2024-03-23T01:40:09;8.93;;;4.43;;
62572;SDS011;48626;51.678;5.806;2024-03-23T01:42:35;23.27;;;5.60;;
62572;SDS011;48626;51.678;5.806;2024-03-23T01:45:00;15.57;;;6.25;;
62572;SDS011;48626;51.678;5.806;2024-03-23T01:47:26;13.68;;;6.30;;
62572;SDS011;48626;51.678;5.806;2024-03-23T01:49:51;19.10;;;7.10;;
62572;SDS011;48626;51.678;5.806;2024-03-23T01:52:18;18.77;;;7.10;;
62572;SDS011;48626;51.678;5.806;2024-03-23T01:54:44;21.58;;;7.00;;
62572;SDS011;48626;51.678;5.806;2024-03-23T01:57:10;16.98;;;5.97;;
62572;SDS011;48626;51.678;5.806;2024-03-23T01:59:36;19.10;;;6.40;;
62572;SDS011;48626;51.678;5.806;2024-03-23T02:02:01;18.48;;;6.32;;
62572;SDS011;48626;51.678;5.806;2024-03-23T02:04:27;16.33;;;6.53;;
62572;SDS011;48626;51.678;5.806;2024-03-23T02:06:53;13.18;;;6.00;;
62572;SDS011;48626;51.678;5.806;2024-03-23T02:09:18;15.85;;;5.97;;
62572;SDS011;48626;51.678;5.806;2024-03-23T02:11:44;16.98;;;6.47;;
62572;SDS011;48626;51.678;5.806;2024-03-23T02:14:10;15.77;;;5.82;;
62572;SDS011;48626;51.678;5.806;2024-03-23T02:16:36;15.60;;;5.38;;
62572;SDS011;48626;51.678;5.806;2024-03-23T02:19:01;10.52;;;5.40;;
62572;SDS011;48626;51.678;5.806;2024-03-23T02:21:27;17.67;;;5.10;;
62572;SDS011;48626;51.678;5.806;2024-03-23T02:23:53;11.82;;;4.65;;
62572;SDS011;48626;51.678;5.806;2024-03-23T02:26:19;22.85;;;4.82;;
62572;SDS011;48626;51.678;5.806;2024-03-23T02:28:44;11.57;;;4.72;;
62572;SDS011;48626;51.678;5.806;2024-03-23T02:31:10;12.40;;;4.40;;
62572;SDS011;48626;51.678;5.806;2024-03-23T02:33:36;17.25;;;4.30;;
62572;SDS011;48626;51.678;5.806;2024-03-23T02:36:03;15.63;;;4.28;;
62572;SDS011;48626;51.678;5.806;2024-03-23T02:38:29;11.55;;;3.65;;
62572;SDS011;48626;51.678;5.806;2024-03-23T02:40:54;8.65;;;4.25;;
62572;SDS011;48626;51.678;5.806;2024-03-23T02:43:25;11.02;;;3.72;;
62572;SDS011;48626;51.678;5.806;2024-03-23T02:45:51;8.45;;;3.70;;
62572;SDS011;48626;51.678;5.806;2024-03-23T02:48:17;15.35;;;3.70;;
62572;SDS011;48626;51.678;5.806;2024-03-23T02:50:42;17.83;;;4.07;;
62572;SDS011;48626;51.678;5.806;2024-03-23T02:53:08;11.98;;;4.18;;
62572;SDS011;48626;51.678;5.806;2024-03-23T02:55:34;13.32;;;4.10;;
62572;SDS011;48626;51.678;5.806;2024-03-23T02:57:59;17.15;;;3.65;;
62572;SDS011;48626;51.678;5.806;2024-03-23T03:00:27;16.25;;;3.92;;
62572;SDS011;48626;51.678;5.806;2024-03-23T03:02:53;12.63;;;3.65;;
62572;SDS011;48626;51.678;5.806;2024-03-23T03:05:18;11.88;;;4.65;;
62572;SDS011;48626;51.678;5.806;2024-03-23T03:07:44;13.77;;;4.13;;
62572;SDS011;48626;51.678;5.806;2024-03-23T03:10:09;12.10;;;4.10;;
62572;SDS011;48626;51.678;5.806;2024-03-23T03:12:36;11.05;;;4.30;;
62572;SDS011;48626;51.678;5.806;2024-03-23T03:15:02;13.13;;;3.90;;
62572;SDS011;48626;51.678;5.806;2024-03-23T03:17:29;10.75;;;4.50;;
62572;SDS011;48626;51.678;5.806;2024-03-23T03:19:55;12.07;;;4.70;;
62572;SDS011;48626;51.678;5.806;2024-03-23T03:22:24;14.30;;;4.72;;
62572;SDS011;48626;51.678;5.806;2024-03-23T03:24:50;15.43;;;4.40;;
62572;SDS011;48626;51.678;5.806;2024-03-23T03:27:15;14.25;;;4.55;;
62572;SDS011;48626;51.678;5.806;2024-03-23T03:29:41;19.67;;;5.20;;
62572;SDS011;48626;51.678;5.806;2024-03-23T03:32:06;13.95;;;5.10;;
62572;SDS011;48626;51.678;5.806;2024-03-23T03:34:32;13.60;;;5.05;;
62572;SDS011;48626;51.678;5.806;2024-03-23T03:36:58;15.88;;;4.88;;
62572;SDS011;48626;51.678;5.806;2024-03-23T03:39:24;20.48;;;4.80;;
62572;SDS011;48626;51.678;5.806;2024-03-23T03:41:50;15.52;;;4.68;;
62572;SDS011;48626;51.678;5.806;2024-03-23T03:44:16;11.45;;;4.55;;
62572;SDS011;48626;51.678;5.806;2024-03-23T03:46:42;13.68;;;4.60;;
62572;SDS011;48626;51.678;5.806;2024-03-23T03:49:08;13.45;;;4.53;;
62572;SDS011;48626;51.678;5.806;2024-03-23T03:51:34;14.48;;;4.78;;
62572;SDS011;48626;51.678;5.806;2024-03-23T03:53:59;12.30;;;5.05;;
62572;SDS011;48626;51.678;5.806;2024-03-23T03:56:25;11.52;;;5.07;;
62572;SDS011;48626;51.678;5.806;2024-03-23T03:58:51;11.07;;;5.40;;
62572;SDS011;48626;51.678;5.806;2024-03-23T04:01:16;21.48;;;5.53;;
62572;SDS011;48626;51.678;5.806;2024-03-23T04:03:43;14.40;;;4.60;;
62572;SDS011;48626;51.678;5.806;2024-03-23T04:06:09;12.07;;;4.45;;
62572;SDS011;48626;51.678;5.806;2024-03-23T04:08:35;12.65;;;4.25;;
62572;SDS011;48626;51.678;5.806;2024-03-23T04:11:00;18.13;;;4.43;;
62572;SDS011;48626;51.678;5.806;2024-03-23T04:13:26;21.45;;;4.70;;
62572;SDS011;48626;51.678;5.806;2024-03-23T04:15:55;12.35;;;4.78;;
62572;SDS011;48626;51.678;5.806;2024-03-23T04:18:22;15.52;;;4.15;;
62572;SDS011;48626;51.678;5.806;2024-03-23T04:20:48;17.30;;;4.00;;
62572;SDS011;48626;51.678;5.806;2024-03-23T04:23:14;15.02;;;3.97;;
62572;SDS011;48626;51.678;5.806;2024-03-23T04:25:40;18.63;;;4.10;;
62572;SDS011;48626;51.678;5.806;2024-03-23T04:28:05;9.18;;;4.18;;
62572;SDS011;48626;51.678;5.806;2024-03-23T04:30:31;15.13;;;3.97;;
62572;SDS011;48626;51.678;5.806;2024-03-23T04:32:57;10.23;;;3.63;;
62572;SDS011;48626;51.678;5.806;2024-03-23T04:35:23;10.70;;;4.00;;
62572;SDS011;48626;51.678;5.806;2024-03-23T04:37:50;17.75;;;4.15;;
62572;SDS011;48626;51.678;5.806;2024-03-23T04:40:17;14.45;;;4.03;;
62572;SDS011;48626;51.678;5.806;2024-03-23T04:42:43;13.75;;;3.88;;
62572;SDS011;48626;51.678;5.806;2024-03-23T04:45:09;11.10;;;3.63;;
62572;SDS011;48626;51.678;5.806;2024-03-23T04:47:35;10.48;;;3.22;;
62572;SDS011;48626;51.678;5.806;2024-03-23T04:50:02;9.40;;;3.30;;
62572;SDS011;48626;51.678;5.806;2024-03-23T04:52:29;12.27;;;3.60;;
62572;SDS011;48626;51.678;5.806;2024-03-23T04:54:55;17.50;;;3.83;;
62572;SDS011;48626;51.678;5.806;2024-03-23T04:57:20;16.33;;;3.55;;
62572;SDS011;48626;51.678;5.806;2024-03-23T04:59:46;15.48;;;4.70;;
62572;SDS011;48626;51.678;5.806;2024-03-23T05:02:12;15.80;;;3.50;;
62572;SDS011;48626;51.678;5.806;2024-03-23T05:04:38;16.48;;;4.07;;
62572;SDS011;48626;51.678;5.806;2024-03-23T05:07:05;15.45;;;4.18;;
62572;SDS011;48626;51.678;5.806;2024-03-23T05:09:31;15.13;;;3.75;;
62572;SDS011;48626;51.678;5.806;2024-03-23T05:11:58;16.10;;;4.15;;
62572;SDS011;48626;51.678;5.806;2024-03-23T05:14:26;13.63;;;4.18;;
62572;SDS011;48626;51.678;5.806;2024-03-23T05:16:52;15.13;;;3.75;;
62572;SDS011;48626;51.678;5.806;2024-03-23T05:19:18;10.57;;;3.17;;
62572;SDS011;48626;51.678;5.806;2024-03-23T05:21:44;14.45;;;3.70;;
62572;SDS011;48626;51.678;5.806;2024-03-23T05:24:09;19.45;;;4.40;;
62572;SDS011;48626;51.678;5.806;2024-03-23T05:26:35;12.05;;;3.78;;
62572;SDS011;48626;51.678;5.806;2024-03-23T05:29:01;18.48;;;3.72;;
62572;SDS011;48626;51.678;5.806;2024-03-23T05:31:28;15.70;;;3.65;;
62572;SDS011;48626;51.678;5.806;2024-03-23T05:33:55;13.50;;;3.30;;
62572;SDS011;48626;51.678;5.806;2024-03-23T05:36:21;19.92;;;3.90;;
62572;SDS011;48626;51.678;5.806;2024-03-23T05:38:47;10.18;;;3.63;;
62572;SDS011;48626;51.678;5.806;2024-03-23T05:41:13;12.65;;;4.10;;
62572;SDS011;48626;51.678;5.806;2024-03-23T05:43:39;10.50;;;3.42;;
62572;SDS011;48626;51.678;5.806;2024-03-23T05:46:04;11.93;;;3.20;;
62572;SDS011;48626;51.678;5.806;2024-03-23T05:48:30;18.98;;;3.60;;
62572;SDS011;48626;51.678;5.806;2024-03-23T05:50:57;12.30;;;3.22;;
62572;SDS011;48626;51.678;5.806;2024-03-23T05:53:23;14.35;;;3.63;;
62572;SDS011;48626;51.678;5.806;2024-03-23T05:55:49;16.35;;;4.38;;
62572;SDS011;48626;51.678;5.806;2024-03-23T05:58:25;15.15;;;4.32;;
62572;SDS011;48626;51.678;5.806;2024-03-23T06:00:56;15.85;;;4.38;;
62572;SDS011;48626;51.678;5.806;2024-03-23T06:03:24;12.13;;;3.90;;
62572;SDS011;48626;51.678;5.806;2024-03-23T06:05:50;10.68;;;3.83;;
62572;SDS011;48626;51.678;5.806;2024-03-23T06:08:16;18.58;;;4.10;;
62572;SDS011;48626;51.678;5.806;2024-03-23T06:10:42;10.45;;;3.90;;
62572;SDS011;48626;51.678;5.806;2024-03-23T06:13:07;12.20;;;3.85;;
62572;SDS011;48626;51.678;5.806;2024-03-23T06:15:33;16.45;;;3.92;;
62572;SDS011;48626;51.678;5.806;2024-03-23T06:18:02;17.25;;;4.68;;
62572;SDS011;48626;51.678;5.806;2024-03-23T06:20:29;26.75;;;4.60;;
62572;SDS011;48626;51.678;5.806;2024-03-23T06:22:55;19.98;;;5.13;;
62572;SDS011;48626;51.678;5.806;2024-03-23T06:25:21;11.40;;;4.53;;
62572;SDS011;48626;51.678;5.806;2024-03-23T06:27:46;15.32;;;4.60;;
62572;SDS011;48626;51.678;5.806;2024-03-23T06:30:12;15.35;;;4.47;;
62572;SDS011;48626;51.678;5.806;2024-03-23T06:32:38;13.25;;;5.57;;
62572;SDS011;48626;51.678;5.806;2024-03-23T06:35:04;13.18;;;4.72;;
62572;SDS011;48626;51.678;5.806;2024-03-23T06:37:33;17.88;;;4.93;;
62572;SDS011;48626;51.678;5.806;2024-03-23T06:39:59;16.02;;;5.45;;
62572;SDS011;48626;51.678;5.806;2024-03-23T06:42:25;18.48;;;5.40;;
62572;SDS011;48626;51.678;5.806;2024-03-23T06:44:50;14.38;;;5.13;;
62572;SDS011;48626;51.678;5.806;2024-03-23T06:47:16;17.20;;;5.25;;
62572;SDS011;48626;51.678;5.806;2024-03-23T06:49:42;17.38;;;5.28;;
62572;SDS011;48626;51.678;5.806;2024-03-23T06:52:07;16.42;;;5.10;;
62572;SDS011;48626;51.678;5.806;2024-03-23T06:54:36;18.52;;;5.53;;
62572;SDS011;48626;51.678;5.806;2024-03-23T06:57:01;19.85;;;5.22;;
62572;SDS011;48626;51.678;5.806;2024-03-23T06:59:28;16.35;;;5.55;;
62572;SDS011;48626;51.678;5.806;2024-03-23T07:01:53;14.57;;;5.38;;
62572;SDS011;48626;51.678;5.806;2024-03-23T07:04:21;14.27;;;4.80;;
62572;SDS011;48626;51.678;5.806;2024-03-23T07:06:47;15.80;;;4.93;;
62572;SDS011;48626;51.678;5.806;2024-03-23T07:09:13;13.18;;;4.82;;
62572;SDS011;48626;51.678;5.806;2024-03-23T07:11:38;17.77;;;5.63;;
62572;SDS011;48626;51.678;5.806;2024-03-23T07:14:12;18.58;;;4.97;;
62572;SDS011;48626;51.678;5.806;2024-03-23T07:16:37;20.70;;;5.18;;
62572;SDS011;48626;51.678;5.806;2024-03-23T07:19:03;17.83;;;5.35;;
62572;SDS011;48626;51.678;5.806;2024-03-23T07:21:34;12.20;;;4.95;;
62572;SDS011;48626;51.678;5.806;2024-03-23T07:24:02;15.43;;;4.90;;
62572;SDS011;48626;51.678;5.806;2024-03-23T07:28:58;12.63;;;3.95;;
62572;SDS011;48626;51.678;5.806;2024-03-23T07:31:28;13.98;;;4.07;;
62572;SDS011;48626;51.678;5.806;2024-03-23T07:33:53;17.98;;;4.60;;
62572;SDS011;48626;51.678;5.806;2024-03-23T07:36:19;18.50;;;4.93;;
62572;SDS011;48626;51.678;5.806;2024-03-23T07:38:47;14.30;;;4.30;;
62572;SDS011;48626;51.678;5.806;2024-03-23T07:41:17;16.17;;;4.30;;
62572;SDS011;48626;51.678;5.806;2024-03-23T07:43:47;17.17;;;4.07;;
62572;SDS011;48626;51.678;5.806;2024-03-23T07:46:16;19.60;;;5.07;;
62572;SDS011;48626;51.678;5.806;2024-03-23T07:51:10;14.50;;;3.83;;
62572;SDS011;48626;51.678;5.806;2024-03-23T07:53:39;12.13;;;3.50;;
62572;SDS011;48626;51.678;5.806;2024-03-23T07:56:08;11.13;;;3.72;;
62572;SDS011;48626;51.678;5.806;2024-03-23T07:58:37;7.35;;;2.92;;
62572;SDS011;48626;51.678;5.806;2024-03-23T08:01:06;19.33;;;3.90;;
62572;SDS011;48626;51.678;5.806;2024-03-23T08:03:33;17.42;;;3.13;;
62572;SDS011;48626;51.678;5.806;2024-03-23T08:06:06;14.50;;;3.53;;
62572;SDS011;48626;51.678;5.806;2024-03-23T08:08:33;14.18;;;3.55;;
62572;SDS011;48626;51.678;5.806;2024-03-23T08:10:59;18.95;;;4.43;;
62572;SDS011;48626;51.678;5.806;2024-03-23T08:13:26;21.58;;;4.18;;
62572;SDS011;48626;51.678;5.806;2024-03-23T08:15:52;16.60;;;3.33;;
62572;SDS011;48626;51.678;5.806;2024-03-23T08:18:21;16.02;;;3.85;;
62572;SDS011;48626;51.678;5.806;2024-03-23T08:20:46;11.32;;;3.33;;
62572;SDS011;48626;51.678;5.806;2024-03-23T08:23:19;14.45;;;3.75;;
62572;SDS011;48626;51.678;5.806;2024-03-23T08:25:45;13.23;;;3.38;;
62572;SDS011;48626;51.678;5.806;2024-03-23T08:28:11;14.65;;;3.40;;
62572;SDS011;48626;51.678;5.806;2024-03-23T08:30:36;17.70;;;3.80;;
62572;SDS011;48626;51.678;5.806;2024-03-23T08:33:02;14.77;;;3.63;;
62572;SDS011;48626;51.678;5.806;2024-03-23T08:35:27;12.68;;;3.38;;
62572;SDS011;48626;51.678;5.806;2024-03-23T08:37:53;13.15;;;3.40;;
62572;SDS011;48626;51.678;5.806;2024-03-23T08:40:19;11.88;;;3.35;;
62572;SDS011;48626;51.678;5.806;2024-03-23T08:42:44;18.90;;;3.92;;
62572;SDS011;48626;51.678;5.806;2024-03-23T08:45:10;17.70;;;4.60;;
62572;SDS011;48626;51.678;5.806;2024-03-23T08:47:35;11.13;;;3.83;;
62572;SDS011;48626;51.678;5.806;2024-03-23T08:50:01;18.13;;;3.85;;
62572;SDS011;48626;51.678;5.806;2024-03-23T08:52:32;22.42;;;4.63;;
62572;SDS011;48626;51.678;5.806;2024-03-23T08:54:58;16.25;;;4.50;;
62572;SDS011;48626;51.678;5.806;2024-03-23T08:57:24;15.80;;;3.88;;
62572;SDS011;48626;51.678;5.806;2024-03-23T08:59:52;14.38;;;3.42;;
62572;SDS011;48626;51.678;5.806;2024-03-23T09:02:30;17.95;;;3.38;;
62572;SDS011;48626;51.678;5.806;2024-03-23T09:05:51;25.63;;;3.83;;
62572;SDS011;48626;51.678;5.806;2024-03-23T09:08:30;13.82;;;2.80;;
62572;SDS011;48626;51.678;5.806;2024-03-23T09:10:56;8.90;;;2.70;;
62572;SDS011;48626;51.678;5.806;2024-03-23T09:13:22;7.90;;;2.85;;
62572;SDS011;48626;51.678;5.806;2024-03-23T09:18:14;12.40;;;3.50;;
62572;SDS011;48626;51.678;5.806;2024-03-23T09:20:39;11.25;;;3.03;;
62572;SDS011;48626;51.678;5.806;2024-03-23T09:23:05;8.48;;;2.80;;
62572;SDS011;48626;51.678;5.806;2024-03-23T09:25:31;10.70;;;2.17;;
62572;SDS011;48626;51.678;5.806;2024-03-23T09:27:57;6.35;;;2.10;;
62572;SDS011;48626;51.678;5.806;2024-03-23T09:30:23;6.28;;;1.83;;
62572;SDS011;48626;51.678;5.806;2024-03-23T09:32:49;7.65;;;2.90;;
62572;SDS011;48626;51.678;5.806;2024-03-23T09:35:14;9.93;;;2.30;;
62572;SDS011;48626;51.678;5.806;2024-03-23T09:37:40;11.20;;;2.50;;
62572;SDS011;48626;51.678;5.806;2024-03-23T09:40:09;8.50;;;2.50;;
62572;SDS011;48626;51.678;5.806;2024-03-23T09:42:36;7.85;;;2.67;;
62572;SDS011;48626;51.678;5.806;2024-03-23T09:45:02;10.32;;;2.30;;
62572;SDS011;48626;51.678;5.806;2024-03-23T09:47:30;11.30;;;3.17;;
62572;SDS011;48626;51.678;5.806;2024-03-23T09:49:57;8.30;;;2.50;;
62572;SDS011;48626;51.678;5.806;2024-03-23T09:52:22;8.45;;;2.50;;
62572;SDS011;48626;51.678;5.806;2024-03-23T09:54:48;11.82;;;2.75;;
62572;SDS011;48626;51.678;5.806;2024-03-23T09:57:13;10.70;;;2.75;;
62572;SDS011;48626;51.678;5.806;2024-03-23T09:59:39;9.73;;;2.90;;
62572;SDS011;48626;51.678;5.806;2024-03-23T10:02:05;8.75;;;3.00;;
62572;SDS011;48626;51.678;5.806;2024-03-23T10:04:38;17.25;;;3.35;;
62572;SDS011;48626;51.678;5.806;2024-03-23T10:07:11;14.73;;;3.33;;
62572;SDS011;48626;51.678;5.806;2024-03-23T10:09:38;23.10;;;3.65;;
62572;SDS011;48626;51.678;5.806;2024-03-23T10:12:08;7.68;;;2.85;;
62572;SDS011;48626;51.678;5.806;2024-03-23T10:14:38;14.38;;;3.47;;
62572;SDS011;48626;51.678;5.806;2024-03-23T10:17:11;16.58;;;3.03;;
62572;SDS011;48626;51.678;5.806;2024-03-23T10:22:14;14.15;;;3.30;;
62572;SDS011;48626;51.678;5.806;2024-03-23T10:24:42;11.90;;;3.70;;
62572;SDS011;48626;51.678;5.806;2024-03-23T10:27:08;12.82;;;2.90;;
62572;SDS011;48626;51.678;5.806;2024-03-23T10:29:34;11.18;;;2.75;;
62572;SDS011;48626;51.678;5.806;2024-03-23T10:32:12;12.00;;;3.03;;
62572;SDS011;48626;51.678;5.806;2024-03-23T10:34:39;14.40;;;3.47;;
62572;SDS011;48626;51.678;5.806;2024-03-23T10:37:05;18.73;;;4.50;;
62572;SDS011;48626;51.678;5.806;2024-03-23T10:39:32;15.20;;;3.20;;
62572;SDS011;48626;51.678;5.806;2024-03-23T10:42:02;12.25;;;3.70;;
62572;SDS011;48626;51.678;5.806;2024-03-23T10:44:28;16.20;;;3.25;;
62572;SDS011;48626;51.678;5.806;2024-03-23T10:46:56;12.90;;;2.90;;
62572;SDS011;48626;51.678;5.806;2024-03-23T10:49:34;11.77;;;3.80;;
62572;SDS011;48626;51.678;5.806;2024-03-23T10:52:02;8.98;;;3.08;;
62572;SDS011;48626;51.678;5.806;2024-03-23T10:54:29;18.85;;;4.15;;
62572;SDS011;48626;51.678;5.806;2024-03-23T10:57:17;10.40;;;2.78;;
62572;SDS011;48626;51.678;5.806;2024-03-23T10:59:46;10.60;;;2.88;;
62572;SDS011;48626;51.678;5.806;2024-03-23T11:02:19;6.68;;;2.30;;
62572;SDS011;48626;51.678;5.806;2024-03-23T11:04:45;7.45;;;2.30;;
62572;SDS011;48626;51.678;5.806;2024-03-23T11:07:29;10.70;;;2.28;;
62572;SDS011;48626;51.678;5.806;2024-03-23T11:09:56;6.60;;;2.40;;
62572;SDS011;48626;51.678;5.806;2024-03-23T11:14:48;11.93;;;2.63;;
62572;SDS011;48626;51.678;5.806;2024-03-23T11:17:19;6.82;;;2.92;;
62572;SDS011;48626;51.678;5.806;2024-03-23T11:19:52;6.32;;;2.28;;
62572;SDS011;48626;51.678;5.806;2024-03-23T11:25:20;7.43;;;2.42;;
62572;SDS011;48626;51.678;5.806;2024-03-23T11:27:49;12.05;;;2.35;;
62572;SDS011;48626;51.678;5.806;2024-03-23T11:30:20;8.27;;;2.47;;
62572;SDS011;48626;51.678;5.806;2024-03-23T11:32:52;7.00;;;2.40;;
62572;SDS011;48626;51.678;5.806;2024-03-23T11:40:42;7.05;;;1.90;;
62572;SDS011;48626;51.678;5.806;2024-03-23T11:43:18;7.88;;;2.55;;
62572;SDS011;48626;51.678;5.806;2024-03-23T11:45:45;7.15;;;1.73;;
62572;SDS011;48626;51.678;5.806;2024-03-23T11:48:13;3.58;;;1.67;;
62572;SDS011;48626;51.678;5.806;2024-03-23T11:50:47;5.80;;;1.95;;
62572;SDS011;48626;51.678;5.806;2024-03-23T11:58:10;4.30;;;1.85;;
62572;SDS011;48626;51.678;5.806;2024-03-23T12:00:36;5.45;;;2.00;;
62572;SDS011;48626;51.678;5.806;2024-03-23T12:03:02;7.95;;;2.17;;
62572;SDS011;48626;51.678;5.806;2024-03-23T12:05:28;7.68;;;2.60;;
62572;SDS011;48626;51.678;5.806;2024-03-23T12:07:54;1.92;;;1.20;;
62572;SDS011;48626;51.678;5.806;2024-03-23T12:10:23;3.83;;;1.40;;
62572;SDS011;48626;51.678;5.806;2024-03-23T12:12:59;8.52;;;1.50;;
62572;SDS011;48626;51.678;5.806;2024-03-23T12:15:25;10.63;;;1.60;;
62572;SDS011;48626;51.678;5.806;2024-03-23T12:17:52;5.85;;;1.67;;
62572;SDS011;48626;51.678;5.806;2024-03-23T12:20:30;8.65;;;2.05;;
62572;SDS011;48626;51.678;5.806;2024-03-23T12:23:04;6.28;;;2.20;;
62572;SDS011;48626;51.678;5.806;2024-03-23T12:25:35;6.93;;;2.10;;
62572;SDS011;48626;51.678;5.806;2024-03-23T12:28:04;5.78;;;2.13;;
62572;SDS011;48626;51.678;5.806;2024-03-23T12:30:38;11.00;;;2.28;;
62572;SDS011;48626;51.678;5.806;2024-03-23T12:33:05;6.43;;;2.15;;
62572;SDS011;48626;51.678;5.806;2024-03-23T12:35:31;4.82;;;2.15;;
62572;SDS011;48626;51.678;5.806;2024-03-23T12:37:57;10.82;;;2.83;;
62572;SDS011;48626;51.678;5.806;2024-03-23T12:40:23;5.30;;;2.28;;
62572;SDS011;48626;51.678;5.806;2024-03-23T12:42:49;8.60;;;2.47;;
62572;SDS011;48626;51.678;5.806;2024-03-23T12:45:15;5.60;;;2.00;;
62572;SDS011;48626;51.678;5.806;2024-03-23T12:47:40;5.75;;;2.30;;
62572;SDS011;48626;51.678;5.806;2024-03-23T12:50:06;8.18;;;2.20;;
62572;SDS011;48626;51.678;5.806;2024-03-23T12:52:33;6.57;;;2.20;;
62572;SDS011;48626;51.678;5.806;2024-03-23T12:54:58;9.20;;;2.25;;
62572;SDS011;48626;51.678;5.806;2024-03-23T12:57:24;8.73;;;2.00;;
62572;SDS011;48626;51.678;5.806;2024-03-23T12:59:53;4.93;;;1.70;;
62572;SDS011;48626;51.678;5.806;2024-03-23T13:02:19;6.90;;;1.65;;
62572;SDS011;48626;51.678;5.806;2024-03-23T13:04:52;4.18;;;1.88;;
62572;SDS011;48626;51.678;5.806;2024-03-23T13:07:19;5.60;;;1.92;;
62572;SDS011;48626;51.678;5.806;2024-03-23T13:09:45;5.95;;;2.28;;
62572;SDS011;48626;51.678;5.806;2024-03-23T13:12:11;7.55;;;2.25;;
62572;SDS011;48626;51.678;5.806;2024-03-23T13:14:37;10.02;;;2.15;;
62572;SDS011;48626;51.678;5.806;2024-03-23T13:17:04;5.70;;;1.98;;
62572;SDS011;48626;51.678;5.806;2024-03-23T13:19:30;8.23;;;2.25;;
62572;SDS011;48626;51.678;5.806;2024-03-23T13:21:59;7.35;;;2.20;;
62572;SDS011;48626;51.678;5.806;2024-03-23T13:24:26;8.50;;;2.30;;
62572;SDS011;48626;51.678;5.806;2024-03-23T13:26:52;6.00;;;2.00;;
62572;SDS011;48626;51.678;5.806;2024-03-23T13:29:19;4.30;;;2.03;;
62572;SDS011;48626;51.678;5.806;2024-03-23T13:31:45;4.68;;;2.00;;
62572;SDS011;48626;51.678;5.806;2024-03-23T13:34:14;9.98;;;2.70;;
62572;SDS011;48626;51.678;5.806;2024-03-23T13:36:41;5.18;;;2.20;;
62572;SDS011;48626;51.678;5.806;2024-03-23T13:39:10;7.43;;;2.10;;
62572;SDS011;48626;51.678;5.806;2024-03-23T13:41:45;3.35;;;1.75;;
62572;SDS011;48626;51.678;5.806;2024-03-23T13:44:11;4.00;;;1.98;;
62572;SDS011;48626;51.678;5.806;2024-03-23T13:46:39;7.22;;;2.10;;
62572;SDS011;48626;51.678;5.806;2024-03-23T13:49:07;6.78;;;3.05;;
62572;SDS011;48626;51.678;5.806;2024-03-23T13:51:43;11.75;;;2.90;;
62572;SDS011;48626;51.678;5.806;2024-03-23T13:54:11;11.95;;;3.10;;
62572;SDS011;48626;51.678;5.806;2024-03-23T13:56:37;6.75;;;2.58;;
62572;SDS011;48626;51.678;5.806;2024-03-23T13:59:03;7.32;;;2.45;;
62572;SDS011;48626;51.678;5.806;2024-03-23T14:01:28;8.85;;;2.50;;
62572;SDS011;48626;51.678;5.806;2024-03-23T14:03:54;9.20;;;3.40;;
62572;SDS011;48626;51.678;5.806;2024-03-23T14:06:21;10.68;;;2.60;;
62572;SDS011;48626;51.678;5.806;2024-03-23T14:08:46;8.88;;;2.60;;
62572;SDS011;48626;51.678;5.806;2024-03-23T14:11:17;7.25;;;2.17;;
62572;SDS011;48626;51.678;5.806;2024-03-23T14:13:43;6.32;;;2.60;;
62572;SDS011;48626;51.678;5.806;2024-03-23T14:16:09;12.85;;;2.35;;
62572;SDS011;48626;51.678;5.806;2024-03-23T14:18:35;10.23;;;3.10;;
62572;SDS011;48626;51.678;5.806;2024-03-23T14:21:01;11.30;;;3.22;;
62572;SDS011;48626;51.678;5.806;2024-03-23T14:23:28;9.80;;;3.03;;
62572;SDS011;48626;51.678;5.806;2024-03-23T14:25:58;9.00;;;2.30;;
62572;SDS011;48626;51.678;5.806;2024-03-23T14:28:24;9.13;;;2.78;;
62572;SDS011;48626;51.678;5.806;2024-03-23T14:30:50;8.73;;;2.40;;
62572;SDS011;48626;51.678;5.806;2024-03-23T14:33:17;9.10;;;2.80;;
62572;SDS011;48626;51.678;5.806;2024-03-23T14:35:43;6.55;;;2.38;;
62572;SDS011;48626;51.678;5.806;2024-03-23T14:38:09;13.35;;;2.75;;
62572;SDS011;48626;51.678;5.806;2024-03-23T14:40:34;11.73;;;2.90;;
62572;SDS011;48626;51.678;5.806;2024-03-23T14:43:00;8.85;;;2.75;;
62572;SDS011;48626;51.678;5.806;2024-03-23T14:45:27;10.45;;;2.88;;
62572;SDS011;48626;51.678;5.806;2024-03-23T14:47:53;10.32;;;3.00;;
62572;SDS011;48626;51.678;5.806;2024-03-23T14:50:19;9.95;;;2.50;;
62572;SDS011;48626;51.678;5.806;2024-03-23T14:52:47;11.35;;;2.47;;
62572;SDS011;48626;51.678;5.806;2024-03-23T14:55:13;6.97;;;2.10;;
62572;SDS011;48626;51.678;5.806;2024-03-23T14:57:39;8.65;;;2.60;;
62572;SDS011;48626;51.678;5.806;2024-03-23T15:00:06;9.38;;;2.60;;
62572;SDS011;48626;51.678;5.806;2024-03-23T15:02:33;11.25;;;3.00;;
62572;SDS011;48626;51.678;5.806;2024-03-23T15:04:59;7.10;;;2.28;;
62572;SDS011;48626;51.678;5.806;2024-03-23T15:07:25;8.70;;;2.03;;
62572;SDS011;48626;51.678;5.806;2024-03-23T15:09:52;10.57;;;3.03;;
62572;SDS011;48626;51.678;5.806;2024-03-23T15:12:18;6.70;;;2.00;;
62572;SDS011;48626;51.678;5.806;2024-03-23T15:14:44;6.80;;;2.40;;
62572;SDS011;48626;51.678;5.806;2024-03-23T15:17:11;7.40;;;2.65;;
62572;SDS011;48626;51.678;5.806;2024-03-23T15:19:36;6.95;;;2.10;;
62572;SDS011;48626;51.678;5.806;2024-03-23T15:22:02;9.68;;;2.80;;
62572;SDS011;48626;51.678;5.806;2024-03-23T15:24:28;11.15;;;2.92;;
62572;SDS011;48626;51.678;5.806;2024-03-23T15:26:54;10.50;;;2.55;;
62572;SDS011;48626;51.678;5.806;2024-03-23T15:29:20;9.55;;;2.30;;
62572;SDS011;48626;51.678;5.806;2024-03-23T15:31:47;7.20;;;2.05;;
62572;SDS011;48626;51.678;5.806;2024-03-23T15:34:17;4.03;;;2.43;;
62572;SDS011;48626;51.678;5.806;2024-03-23T15:36:44;5.47;;;2.50;;
62572;SDS011;48626;51.678;5.806;2024-03-23T15:39:10;6.43;;;2.20;;
62572;SDS011;48626;51.678;5.806;2024-03-23T15:41:35;3.65;;;1.92;;
62572;SDS011;48626;51.678;5.806;2024-03-23T15:44:02;4.60;;;1.80;;
62572;SDS011;48626;51.678;5.806;2024-03-23T15:46:28;4.38;;;1.80;;
62572;SDS011;48626;51.678;5.806;2024-03-23T15:48:53;5.78;;;2.08;;
62572;SDS011;48626;51.678;5.806;2024-03-23T15:51:19;4.00;;;2.35;;
62572;SDS011;48626;51.678;5.806;2024-03-23T15:53:45;9.25;;;2.45;;
62572;SDS011;48626;51.678;5.806;2024-03-23T15:56:12;7.10;;;2.40;;